Time;durP1;ratioP1;P1;durP2;ratioP2;P2;SDS_P1;SDS_P2;PMS_P1;PMS_P2;Temp;Humidity;BMP_temperature;BMP_pressure;BME280_temperature;BME280_humidity;BME280_pressure;Samples;Min_cycle;Max_cycle;Signal;HPM_P1;HPM_P2
2021/06/06 00:00:52;;;;;;;5.13;2.00;;;;;;;;;;10522691;28;20198;-69
2021/06/06 00:05:57;;;;;;;4.83;2.00;;;;;;;;;;10513270;28;20208;-69
2021/06/06 00:11:00;;;;;;;3.03;1.43;;;;;;;;;;10519729;28;20621;-69
2021/06/06 00:16:02;;;;;;;3.90;1.83;;;;;;;;;;10523827;28;20261;-69
2021/06/06 00:21:06;;;;;;;4.73;1.97;;;;;;;;;;10516430;28;20219;-68
2021/06/06 00:26:08;;;;;;;3.90;1.70;;;;;;;;;;10516992;28;20208;-69
2021/06/06 00:31:10;;;;;;;5.07;1.97;;;;;;;;;;10525845;28;20250;-68
2021/06/06 00:36:14;;;;;;;4.73;2.10;;;;;;;;;;10510964;28;20231;-68
2021/06/06 00:41:17;;;;;;;4.50;2.00;;;;;;;;;;10525710;28;20199;-69
2021/06/06 00:46:22;;;;;;;5.80;1.90;;;;;;;;;;10535432;28;20292;-69
2021/06/06 00:51:28;;;;;;;6.73;2.50;;;;;;;;;;10519365;28;20550;-69
2021/06/06 00:56:30;;;;;;;4.70;2.07;;;;;;;;;;10523041;28;20287;-71
2021/06/06 01:01:32;;;;;;;4.20;1.97;;;;;;;;;;10522236;28;20200;-70
2021/06/06 01:06:38;;;;;;;5.10;2.10;;;;;;;;;;10526038;28;20208;-68
2021/06/06 01:11:43;;;;;;;4.00;1.83;;;;;;;;;;10517745;28;20207;-69
2021/06/06 01:16:49;;;;;;;4.93;1.90;;;;;;;;;;10508930;28;20529;-68
2021/06/06 01:22:09;;;;;;;3.80;1.80;;;;;;;;;;10522542;28;20199;-68
2021/06/06 01:27:14;;;;;;;3.20;1.37;;;;;;;;;;10527766;28;20222;-68
2021/06/06 01:32:18;;;;;;;3.83;1.80;;;;;;;;;;10515114;28;20290;-69
2021/06/06 01:37:21;;;;;;;5.97;2.27;;;;;;;;;;10518957;28;20298;-68
2021/06/06 01:42:27;;;;;;;5.07;2.10;;;;;;;;;;10515780;28;20183;-68
2021/06/06 01:47:30;;;;;;;4.00;2.00;;;;;;;;;;10527962;28;20965;-68
2021/06/06 01:52:34;;;;;;;6.00;2.10;;;;;;;;;;10528360;28;20246;-68
2021/06/06 01:57:39;;;;;;;4.90;1.77;;;;;;;;;;10510975;28;20288;-68
2021/06/06 02:02:41;;;;;;;3.53;1.60;;;;;;;;;;10523578;28;20196;-67
2021/06/06 02:07:45;;;;;;;3.77;1.77;;;;;;;;;;10521151;28;20324;-69
2021/06/06 02:12:49;;;;;;;4.33;2.13;;;;;;;;;;10511333;28;20278;-68
2021/06/06 02:17:52;;;;;;;4.30;1.80;;;;;;;;;;10521528;28;20222;-69
2021/06/06 02:22:55;;;;;;;6.17;2.00;;;;;;;;;;10518213;28;20196;-68
2021/06/06 02:28:05;;;;;;;3.63;1.60;;;;;;;;;;10513584;28;20271;-69
2021/06/06 02:33:09;;;;;;;4.27;1.87;;;;;;;;;;10525146;28;20298;-69
2021/06/06 02:38:14;;;;;;;4.37;1.90;;;;;;;;;;10516881;28;20195;-68
2021/06/06 02:43:20;;;;;;;4.00;1.80;;;;;;;;;;10521697;28;20192;-67
2021/06/06 02:48:24;;;;;;;4.33;1.73;;;;;;;;;;10522425;28;20242;-68
2021/06/06 02:53:28;;;;;;;4.73;2.00;;;;;;;;;;10525809;28;20275;-69
2021/06/06 02:58:36;;;;;;;3.70;1.90;;;;;;;;;;10516560;28;20249;-69
2021/06/06 03:03:38;;;;;;;3.80;1.90;;;;;;;;;;10524922;28;20695;-68
2021/06/06 03:08:40;;;;;;;5.80;2.60;;;;;;;;;;10523022;28;20223;-68
2021/06/06 03:13:46;;;;;;;3.70;1.90;;;;;;;;;;10528104;28;20264;-68
2021/06/06 03:18:50;;;;;;;5.23;2.10;;;;;;;;;;10518279;28;20682;-70
2021/06/06 03:23:53;;;;;;;4.70;1.80;;;;;;;;;;10525594;28;20295;-68
2021/06/06 03:28:58;;;;;;;6.10;2.30;;;;;;;;;;10519090;28;20204;-68
2021/06/06 03:34:01;;;;;;;6.80;2.30;;;;;;;;;;10523150;28;20298;-68
2021/06/06 03:39:04;;;;;;;3.90;2.00;;;;;;;;;;10520497;28;20195;-67
2021/06/06 03:44:08;;;;;;;3.80;1.77;;;;;;;;;;10533689;28;20594;-68
2021/06/06 03:49:10;;;;;;;5.10;2.03;;;;;;;;;;10528297;28;20220;-69
2021/06/06 03:54:12;;;;;;;4.10;2.00;;;;;;;;;;10529255;28;20741;-69
2021/06/06 03:59:17;;;;;;;4.87;2.17;;;;;;;;;;10534644;28;20194;-69
2021/06/06 04:04:19;;;;;;;4.20;2.10;;;;;;;;;;10531336;28;20212;-68
2021/06/06 04:09:21;;;;;;;3.80;1.77;;;;;;;;;;10523691;28;20690;-69
2021/06/06 04:14:24;;;;;;;5.27;2.20;;;;;;;;;;10533040;28;20273;-69
2021/06/06 04:19:46;;;;;;;6.27;2.20;;;;;;;;;;10520578;28;20280;-67
2021/06/06 04:24:48;;;;;;;5.17;2.10;;;;;;;;;;10527443;28;20243;-68
2021/06/06 04:29:52;;;;;;;4.03;1.90;;;;;;;;;;10520292;28;20196;-68
2021/06/06 04:34:54;;;;;;;4.17;1.80;;;;;;;;;;10516120;28;20220;-69
2021/06/06 04:39:56;;;;;;;3.90;1.80;;;;;;;;;;10520705;28;20202;-69
2021/06/06 04:44:59;;;;;;;3.73;1.90;;;;;;;;;;10518681;28;20636;-68
2021/06/06 04:50:01;;;;;;;4.90;1.97;;;;;;;;;;10527501;28;20659;-68
2021/06/06 04:55:07;;;;;;;4.33;2.10;;;;;;;;;;10526621;28;20211;-67
2021/06/06 05:00:12;;;;;;;4.90;2.13;;;;;;;;;;10524126;28;20188;-68
2021/06/06 05:05:14;;;;;;;5.17;2.10;;;;;;;;;;10519043;28;20212;-67
2021/06/06 05:10:16;;;;;;;4.90;2.10;;;;;;;;;;10518961;28;20203;-68
2021/06/06 05:15:21;;;;;;;5.40;1.80;;;;;;;;;;10524168;28;20295;-68
2021/06/06 05:20:25;;;;;;;3.80;1.93;;;;;;;;;;10531420;28;20192;-68
2021/06/06 05:25:27;;;;;;;3.67;1.60;;;;;;;;;;10519785;28;20258;-68
2021/06/06 05:30:31;;;;;;;3.57;1.80;;;;;;;;;;10529576;28;20275;-68
2021/06/06 05:35:34;;;;;;;3.80;1.73;;;;;;;;;;10527173;28;20219;-68
2021/06/06 05:40:37;;;;;;;0.90;0.70;;;;;;;;;;10524540;28;20184;-70
2021/06/06 05:45:40;;;;;;;6.13;2.10;;;;;;;;;;10522616;28;20374;-69
2021/06/06 05:50:43;;;;;;;3.93;1.83;;;;;;;;;;10519337;28;20248;-67
2021/06/06 05:55:46;;;;;;;4.17;1.50;;;;;;;;;;10524184;28;20299;-68
2021/06/06 06:00:50;;;;;;;4.60;1.53;;;;;;;;;;10522827;28;20283;-68
2021/06/06 06:05:54;;;;;;;4.33;1.97;;;;;;;;;;10521138;28;20235;-68
2021/06/06 06:10:57;;;;;;;2.60;1.60;;;;;;;;;;10516623;28;20283;-67
2021/06/06 06:16:02;;;;;;;3.33;1.40;;;;;;;;;;10507500;28;20533;-68
2021/06/06 06:21:05;;;;;;;3.83;1.70;;;;;;;;;;10518948;28;20647;-68
2021/06/06 06:26:07;;;;;;;4.30;2.00;;;;;;;;;;10517083;28;20220;-69
2021/06/06 06:31:11;;;;;;;3.40;1.70;;;;;;;;;;10503157;28;20297;-68
2021/06/06 06:36:14;;;;;;;4.90;2.00;;;;;;;;;;10514741;28;20334;-68
2021/06/06 06:41:16;;;;;;;2.97;1.60;;;;;;;;;;10513271;28;20201;-67
2021/06/06 06:46:20;;;;;;;3.40;1.50;;;;;;;;;;10504457;28;20211;-67
2021/06/06 06:51:22;;;;;;;5.83;1.90;;;;;;;;;;10528537;28;20196;-69
2021/06/06 06:56:25;;;;;;;4.93;2.00;;;;;;;;;;10526551;28;20208;-69
2021/06/06 07:01:28;;;;;;;3.77;1.17;;;;;;;;;;10516478;28;20191;-68
2021/06/06 07:06:30;;;;;;;4.53;1.93;;;;;;;;;;10531157;28;20326;-70
2021/06/06 07:11:32;;;;;;;3.77;1.63;;;;;;;;;;10529113;28;20744;-68
2021/06/06 07:16:36;;;;;;;3.60;1.60;;;;;;;;;;10527987;28;20200;-68
2021/06/06 07:21:39;;;;;;;2.00;1.20;;;;;;;;;;10516382;28;20226;-68
2021/06/06 07:26:42;;;;;;;3.10;1.67;;;;;;;;;;10531057;28;20614;-68
2021/06/06 07:31:48;;;;;;;2.87;1.40;;;;;;;;;;10515134;28;20192;-68
2021/06/06 07:36:51;;;;;;;3.07;1.53;;;;;;;;;;10518532;28;20579;-71
2021/06/06 07:41:53;;;;;;;4.33;1.67;;;;;;;;;;10522587;28;20567;-69
2021/06/06 07:46:57;;;;;;;2.53;1.50;;;;;;;;;;10524891;28;20203;-69
2021/06/06 07:51:59;;;;;;;3.03;1.47;;;;;;;;;;10517679;28;20257;-69
2021/06/06 07:57:01;;;;;;;4.07;1.57;;;;;;;;;;10531214;28;20539;-70
2021/06/06 08:02:05;;;;;;;1.97;1.20;;;;;;;;;;10524254;28;20203;-69
2021/06/06 08:07:07;;;;;;;1.80;1.13;;;;;;;;;;10527480;28;20692;-68
2021/06/06 08:12:10;;;;;;;2.23;1.00;;;;;;;;;;10525743;28;20238;-68
2021/06/06 08:17:13;;;;;;;2.50;1.33;;;;;;;;;;10524680;28;20283;-68
2021/06/06 08:22:15;;;;;;;1.27;1.10;;;;;;;;;;10515139;28;20206;-70
2021/06/06 08:27:18;;;;;;;3.80;1.20;;;;;;;;;;10526268;28;20208;-68
2021/06/06 08:32:21;;;;;;;1.87;1.20;;;;;;;;;;10518179;28;20631;-68
2021/06/06 08:37:23;;;;;;;2.50;0.90;;;;;;;;;;10520147;28;20684;-68
2021/06/06 08:42:31;;;;;;;2.43;1.03;;;;;;;;;;10513042;28;21018;-69
2021/06/06 08:47:36;;;;;;;2.73;1.20;;;;;;;;;;10528786;28;20551;-70
2021/06/06 08:52:42;;;;;;;1.20;0.80;;;;;;;;;;10518107;28;20192;-68
2021/06/06 08:57:46;;;;;;;1.37;0.97;;;;;;;;;;10519634;28;20220;-68
2021/06/06 09:02:51;;;;;;;1.60;0.90;;;;;;;;;;10513807;28;20279;-68
2021/06/06 09:07:54;;;;;;;2.63;1.10;;;;;;;;;;10528035;28;20326;-70
2021/06/06 09:12:57;;;;;;;1.57;0.90;;;;;;;;;;10520935;28;20207;-68
2021/06/06 09:18:14;;;;;;;2.57;1.30;;;;;;;;;;10522210;28;20227;-71
2021/06/06 09:23:21;;;;;;;1.27;0.77;;;;;;;;;;10526052;28;20192;-68
2021/06/06 09:28:25;;;;;;;1.10;0.67;;;;;;;;;;10525445;28;20219;-68
2021/06/06 09:33:49;;;;;;;1.03;0.87;;;;;;;;;;10515839;28;20567;-69
2021/06/06 09:39:18;;;;;;;1.10;0.90;;;;;;;;;;10505483;28;20933;-68
2021/06/06 09:44:40;;;;;;;2.40;1.00;;;;;;;;;;10515273;28;20742;-69
2021/06/06 09:50:10;;;;;;;2.00;0.60;;;;;;;;;;10520695;28;20694;-70
2021/06/06 09:55:33;;;;;;;0.87;0.60;;;;;;;;;;10519440;28;20227;-67
2021/06/06 10:00:37;;;;;;;2.00;1.20;;;;;;;;;;10524846;28;20195;-70
2021/06/06 10:05:41;;;;;;;1.33;1.07;;;;;;;;;;10520985;28;20697;-68
2021/06/06 10:10:46;;;;;;;1.80;0.70;;;;;;;;;;10508305;28;20228;-70
2021/06/06 10:15:49;;;;;;;1.33;0.90;;;;;;;;;;10521749;28;20334;-70
2021/06/06 10:20:54;;;;;;;1.80;0.40;;;;;;;;;;10500005;28;20196;-70
2021/06/06 10:25:58;;;;;;;1.67;0.70;;;;;;;;;;10499186;28;20216;-70
2021/06/06 10:31:04;;;;;;;1.57;0.93;;;;;;;;;;10493798;28;20188;-69
2021/06/06 10:36:09;;;;;;;2.80;1.00;;;;;;;;;;10498944;28;20219;-71
2021/06/06 10:41:13;;;;;;;1.00;0.90;;;;;;;;;;10501406;28;20267;-69
2021/06/06 10:46:18;;;;;;;2.23;0.80;;;;;;;;;;10507211;28;20239;-69
2021/06/06 10:51:32;;;;;;;1.70;1.10;;;;;;;;;;10497846;28;20246;-69
2021/06/06 10:56:36;;;;;;;1.13;1.00;;;;;;;;;;10501485;28;20211;-69
2021/06/06 11:01:47;;;;;;;1.03;0.90;;;;;;;;;;10508159;28;20238;-68
2021/06/06 11:07:02;;;;;;;1.13;0.90;;;;;;;;;;10508873;28;20222;-69
2021/06/06 11:12:09;;;;;;;1.90;1.10;;;;;;;;;;10514357;28;20194;-69
2021/06/06 11:17:13;;;;;;;1.13;0.80;;;;;;;;;;10507243;28;21031;-69
2021/06/06 11:22:29;;;;;;;0.80;0.73;;;;;;;;;;10502587;28;20196;-68
2021/06/06 11:27:35;;;;;;;2.53;1.00;;;;;;;;;;10502276;28;20215;-68
2021/06/06 11:32:41;;;;;;;0.60;0.60;;;;;;;;;;10501211;28;20204;-70
2021/06/06 11:37:47;;;;;;;1.70;0.83;;;;;;;;;;10503971;28;20215;-69
2021/06/06 11:42:49;;;;;;;1.67;0.97;;;;;;;;;;10505937;28;20715;-69
2021/06/06 11:47:53;;;;;;;0.93;0.70;;;;;;;;;;10508953;28;20310;-68
2021/06/06 11:53:01;;;;;;;1.93;1.20;;;;;;;;;;10506765;28;20197;-68
2021/06/06 11:58:07;;;;;;;2.70;1.33;;;;;;;;;;10515647;28;20249;-69
2021/06/06 12:03:11;;;;;;;2.17;1.13;;;;;;;;;;10528968;28;20217;-68
2021/06/06 12:08:14;;;;;;;1.00;0.90;;;;;;;;;;10528667;28;20614;-69
2021/06/06 12:13:18;;;;;;;4.03;1.63;;;;;;;;;;10527066;28;20200;-68
2021/06/06 12:18:22;;;;;;;2.80;1.20;;;;;;;;;;10525713;28;20257;-68
2021/06/06 12:23:29;;;;;;;1.73;1.30;;;;;;;;;;10519658;28;20564;-68
2021/06/06 12:28:31;;;;;;;2.63;1.10;;;;;;;;;;10515426;28;20567;-69
2021/06/06 12:33:35;;;;;;;1.10;1.00;;;;;;;;;;10509253;28;20192;-71
2021/06/06 12:38:38;;;;;;;2.33;1.20;;;;;;;;;;10511950;28;20210;-68
2021/06/06 12:43:42;;;;;;;2.03;1.23;;;;;;;;;;10512329;28;20223;-68
2021/06/06 12:48:55;;;;;;;0.70;0.70;;;;;;;;;;10509032;28;20215;-69
2021/06/06 12:54:07;;;;;;;1.17;0.90;;;;;;;;;;10520982;28;20215;-68
2021/06/06 12:59:12;;;;;;;1.40;1.00;;;;;;;;;;10516065;28;20212;-68
2021/06/06 13:04:19;;;;;;;1.60;1.20;;;;;;;;;;10526027;28;20239;-69
2021/06/06 13:09:26;;;;;;;1.10;1.00;;;;;;;;;;10511963;28;20277;-70
2021/06/06 13:14:35;;;;;;;1.02;0.90;;;;;;;;;;10515916;28;20214;-68
2021/06/06 13:19:38;;;;;;;0.68;0.60;;;;;;;;;;10504209;28;20226;-70
2021/06/06 13:24:43;;;;;;;1.02;0.80;;;;;;;;;;10496159;28;20216;-69
2021/06/06 13:29:46;;;;;;;1.00;0.68;;;;;;;;;;10483106;28;20702;-69
2021/06/06 13:34:49;;;;;;;1.50;0.90;;;;;;;;;;10485026;28;20220;-68
2021/06/06 13:39:53;;;;;;;1.37;0.90;;;;;;;;;;10487916;28;20205;-68
2021/06/06 13:44:55;;;;;;;2.07;1.20;;;;;;;;;;10482563;28;20590;-70
2021/06/06 13:49:57;;;;;;;1.47;1.00;;;;;;;;;;10487260;28;20215;-68
2021/06/06 13:55:00;;;;;;;1.37;0.90;;;;;;;;;;10480027;28;20896;-70
2021/06/06 14:00:03;;;;;;;1.67;0.80;;;;;;;;;;10484612;28;20204;-69
2021/06/06 14:05:07;;;;;;;0.70;0.70;;;;;;;;;;10481854;28;20978;-70
2021/06/06 14:10:14;;;;;;;0.93;0.90;;;;;;;;;;10483091;28;20718;-70
2021/06/06 14:15:19;;;;;;;1.13;1.00;;;;;;;;;;10482364;28;20215;-69
2021/06/06 14:20:22;;;;;;;1.80;1.00;;;;;;;;;;10486000;28;20241;-69
2021/06/06 14:25:27;;;;;;;1.30;0.80;;;;;;;;;;10480674;28;20216;-68
2021/06/06 14:30:31;;;;;;;1.07;0.90;;;;;;;;;;10481570;28;20211;-71
2021/06/06 14:35:34;;;;;;;2.73;1.20;;;;;;;;;;10485002;28;20727;-70
2021/06/06 14:40:38;;;;;;;1.37;0.93;;;;;;;;;;10480370;28;20203;-69
2021/06/06 14:45:42;;;;;;;3.10;2.00;;;;;;;;;;10479078;28;20243;-70
2021/06/06 14:50:44;;;;;;;1.40;1.00;;;;;;;;;;10485192;28;20551;-69
2021/06/06 14:55:49;;;;;;;0.93;0.90;;;;;;;;;;10513159;28;20389;-68
2021/06/06 15:00:54;;;;;;;3.77;1.00;;;;;;;;;;10485282;28;20690;-70
2021/06/06 15:05:56;;;;;;;2.83;1.10;;;;;;;;;;10483839;28;20234;-69
2021/06/06 15:11:00;;;;;;;3.80;1.63;;;;;;;;;;10517796;28;20382;-70
2021/06/06 15:16:04;;;;;;;2.57;1.10;;;;;;;;;;10527263;28;20230;-69
2021/06/06 15:21:08;;;;;;;1.07;1.00;;;;;;;;;;10532084;28;20184;-71
2021/06/06 15:26:12;;;;;;;3.37;1.33;;;;;;;;;;10522367;28;20211;-70
2021/06/06 15:31:15;;;;;;;2.27;1.37;;;;;;;;;;10497223;28;20304;-70
2021/06/06 15:36:18;;;;;;;2.10;1.10;;;;;;;;;;10517025;28;20216;-69
2021/06/06 15:41:25;;;;;;;1.37;1.20;;;;;;;;;;10518668;28;20211;-69
2021/06/06 15:46:29;;;;;;;1.67;1.30;;;;;;;;;;10529374;28;20203;-70
2021/06/06 15:51:33;;;;;;;2.47;1.40;;;;;;;;;;10513613;28;20243;-71
2021/06/06 15:56:37;;;;;;;2.67;1.23;;;;;;;;;;10516780;28;20593;-71
2021/06/06 16:01:39;;;;;;;5.90;3.00;;;;;;;;;;10524823;28;20485;-69
2021/06/06 16:06:42;;;;;;;1.60;1.07;;;;;;;;;;10508809;28;20656;-69
2021/06/06 16:11:46;;;;;;;1.73;1.40;;;;;;;;;;10505022;28;20215;-70
2021/06/06 16:16:48;;;;;;;2.17;1.23;;;;;;;;;;10514134;28;20709;-70
2021/06/06 16:21:51;;;;;;;1.93;1.40;;;;;;;;;;10524232;28;20266;-70
2021/06/06 16:26:54;;;;;;;1.70;1.23;;;;;;;;;;10530485;28;20228;-71
2021/06/06 16:31:57;;;;;;;7.17;3.50;;;;;;;;;;10528304;28;20222;-68
2021/06/06 16:36:59;;;;;;;2.73;1.60;;;;;;;;;;10511387;28;20719;-69
2021/06/06 16:42:03;;;;;;;3.53;1.60;;;;;;;;;;10517350;28;20184;-69
2021/06/06 16:47:05;;;;;;;5.13;2.90;;;;;;;;;;10513198;28;20505;-68
2021/06/06 16:52:08;;;;;;;3.67;1.60;;;;;;;;;;10513707;28;20303;-71
2021/06/06 16:57:11;;;;;;;2.37;1.57;;;;;;;;;;10508658;28;20223;-69
2021/06/06 17:02:13;;;;;;;3.30;1.67;;;;;;;;;;10514055;28;20213;-70
2021/06/06 17:07:15;;;;;;;2.07;1.40;;;;;;;;;;10525992;28;20370;-70
2021/06/06 17:12:19;;;;;;;2.17;1.40;;;;;;;;;;10520068;28;20313;-71
2021/06/06 17:17:21;;;;;;;2.63;1.60;;;;;;;;;;10512695;28;20232;-69
2021/06/06 17:22:23;;;;;;;6.40;3.37;;;;;;;;;;10515960;28;20627;-70
2021/06/06 17:27:26;;;;;;;2.10;1.40;;;;;;;;;;10527107;28;20247;-68
2021/06/06 17:32:28;;;;;;;5.90;2.57;;;;;;;;;;10525473;28;20230;-70
2021/06/06 17:37:31;;;;;;;2.40;1.60;;;;;;;;;;10517349;28;20679;-69
2021/06/06 17:42:34;;;;;;;3.97;1.80;;;;;;;;;;10520899;28;20252;-69
2021/06/06 17:47:37;;;;;;;2.93;1.60;;;;;;;;;;10511255;28;20234;-70
2021/06/06 17:52:51;;;;;;;3.13;2.10;;;;;;;;;;10528293;28;20558;-71
2021/06/06 17:57:54;;;;;;;2.43;1.60;;;;;;;;;;10528195;28;20199;-69
2021/06/06 18:02:58;;;;;;;2.77;1.60;;;;;;;;;;10518879;28;20199;-69
2021/06/06 18:08:01;;;;;;;3.70;1.77;;;;;;;;;;10515905;28;20623;-71
2021/06/06 18:13:06;;;;;;;5.67;2.80;;;;;;;;;;10519979;28;20253;-68
2021/06/06 18:18:09;;;;;;;2.37;1.70;;;;;;;;;;10521207;28;20216;-69
2021/06/06 18:23:12;;;;;;;3.80;1.90;;;;;;;;;;10513275;28;20230;-68
2021/06/06 18:28:16;;;;;;;3.97;1.80;;;;;;;;;;10518727;28;20211;-68
2021/06/06 18:33:19;;;;;;;3.10;1.93;;;;;;;;;;10522297;28;20192;-69
2021/06/06 18:38:22;;;;;;;3.20;2.13;;;;;;;;;;10518710;28;20204;-70
2021/06/06 18:43:26;;;;;;;2.73;1.83;;;;;;;;;;10529516;28;20725;-69
2021/06/06 18:48:28;;;;;;;2.27;1.60;;;;;;;;;;10540516;28;20203;-69
2021/06/06 18:53:30;;;;;;;3.23;1.70;;;;;;;;;;10528016;28;20203;-68
2021/06/06 18:58:35;;;;;;;3.07;1.67;;;;;;;;;;10537201;28;20346;-70
2021/06/06 19:03:38;;;;;;;5.00;2.00;;;;;;;;;;10520062;28;20198;-72
2021/06/06 19:08:40;;;;;;;3.80;2.37;;;;;;;;;;10532504;28;20549;-71
2021/06/06 19:13:44;;;;;;;6.53;3.57;;;;;;;;;;10534445;28;20269;-68
2021/06/06 19:18:46;;;;;;;3.50;1.80;;;;;;;;;;10528103;28;20192;-70
2021/06/06 19:23:48;;;;;;;3.87;1.97;;;;;;;;;;10531370;28;20371;-69
2021/06/06 19:28:52;;;;;;;5.60;2.57;;;;;;;;;;10516111;28;20273;-70
2021/06/06 19:33:55;;;;;;;4.70;2.53;;;;;;;;;;10529337;28;20211;-70
2021/06/06 19:39:17;;;;;;;4.53;1.73;;;;;;;;;;10527554;28;20196;-69
2021/06/06 19:44:21;;;;;;;4.37;2.03;;;;;;;;;;10524281;28;20260;-69
2021/06/06 19:49:23;;;;;;;3.77;2.10;;;;;;;;;;10506023;28;20893;-71
2021/06/06 19:54:25;;;;;;;5.67;2.43;;;;;;;;;;10511240;28;20315;-69
2021/06/06 19:59:28;;;;;;;5.03;2.40;;;;;;;;;;10507330;28;20546;-70
2021/06/06 20:04:31;;;;;;;4.47;2.03;;;;;;;;;;10501931;28;20580;-70
2021/06/06 20:09:33;;;;;;;4.30;1.90;;;;;;;;;;10495994;28;20298;-70
2021/06/06 20:14:37;;;;;;;2.00;1.50;;;;;;;;;;10506066;28;20276;-70
2021/06/06 20:19:39;;;;;;;2.60;1.40;;;;;;;;;;10514054;28;20310;-69
2021/06/06 20:24:41;;;;;;;3.30;1.60;;;;;;;;;;10509755;28;20224;-68
2021/06/06 20:29:51;;;;;;;2.37;1.57;;;;;;;;;;10505087;28;21161;-67
2021/06/06 20:35:12;;;;;;;2.33;1.60;;;;;;;;;;10507266;28;20576;-69
2021/06/06 20:40:14;;;;;;;4.50;1.60;;;;;;;;;;10518415;28;20188;-70
2021/06/06 20:45:20;;;;;;;3.03;1.83;;;;;;;;;;10521023;28;20258;-69
2021/06/06 20:50:23;;;;;;;3.20;1.80;;;;;;;;;;10516045;28;20242;-68
2021/06/06 20:55:26;;;;;;;3.47;1.80;;;;;;;;;;10514769;28;21840;-68
2021/06/06 21:00:32;;;;;;;3.73;2.17;;;;;;;;;;10528920;28;20271;-68
2021/06/06 21:05:34;;;;;;;3.37;2.00;;;;;;;;;;10522124;28;20231;-69
2021/06/06 21:10:37;;;;;;;4.00;2.00;;;;;;;;;;10525938;28;20212;-68
2021/06/06 21:15:40;;;;;;;4.30;2.33;;;;;;;;;;10531339;28;20683;-69
2021/06/06 21:20:45;;;;;;;5.70;2.97;;;;;;;;;;10529653;28;20195;-68
2021/06/06 21:25:50;;;;;;;4.70;2.30;;;;;;;;;;10514918;28;20725;-69
2021/06/06 21:30:54;;;;;;;3.70;2.40;;;;;;;;;;10525321;28;20265;-69
2021/06/06 21:35:57;;;;;;;3.17;1.80;;;;;;;;;;10518243;28;20310;-69
2021/06/06 21:40:59;;;;;;;5.03;2.80;;;;;;;;;;10518015;28;20195;-67
2021/06/06 21:46:02;;;;;;;3.97;2.23;;;;;;;;;;10525625;28;20698;-69
2021/06/06 21:51:06;;;;;;;4.83;2.20;;;;;;;;;;10526730;28;20223;-69
2021/06/06 21:56:08;;;;;;;3.73;2.00;;;;;;;;;;10529466;28;20211;-68
2021/06/06 22:01:13;;;;;;;8.20;2.63;;;;;;;;;;10521173;28;20194;-68
2021/06/06 22:06:16;;;;;;;4.53;2.30;;;;;;;;;;10526280;28;20645;-69
2021/06/06 22:11:20;;;;;;;4.60;2.20;;;;;;;;;;10529462;28;20211;-69
2021/06/06 22:16:25;;;;;;;4.50;2.57;;;;;;;;;;10509992;28;20211;-68
2021/06/06 22:21:46;;;;;;;4.73;2.10;;;;;;;;;;10520159;28;20180;-68
2021/06/06 22:27:07;;;;;;;5.63;2.23;;;;;;;;;;10515349;28;20684;-69
2021/06/06 22:32:28;;;;;;;5.00;2.10;;;;;;;;;;10523934;28;20234;-69
2021/06/06 22:37:49;;;;;;;3.80;1.90;;;;;;;;;;10523693;28;20242;-68
2021/06/06 22:43:11;;;;;;;4.27;2.10;;;;;;;;;;10514441;28;20206;-68
2021/06/06 22:48:35;;;;;;;3.50;1.90;;;;;;;;;;10519233;28;20215;-68
2021/06/06 22:53:56;;;;;;;3.00;1.50;;;;;;;;;;10523137;28;20291;-69
2021/06/06 22:59:16;;;;;;;3.63;1.60;;;;;;;;;;10522496;28;20196;-67
2021/06/06 23:04:37;;;;;;;2.40;1.50;;;;;;;;;;10518583;28;20219;-67
2021/06/06 23:09:58;;;;;;;2.93;1.50;;;;;;;;;;10523855;28;20222;-68
2021/06/06 23:15:00;;;;;;;7.90;3.57;;;;;;;;;;10522535;28;20250;-67
2021/06/06 23:20:04;;;;;;;5.00;2.10;;;;;;;;;;10521612;28;20192;-68
2021/06/06 23:25:07;;;;;;;3.27;2.00;;;;;;;;;;10518571;28;20302;-68
2021/06/06 23:30:11;;;;;;;2.63;1.83;;;;;;;;;;10527001;28;20673;-68
2021/06/06 23:35:15;;;;;;;3.90;2.00;;;;;;;;;;10526945;28;20211;-67
2021/06/06 23:40:17;;;;;;;4.97;2.10;;;;;;;;;;10520776;28;20637;-69
2021/06/06 23:45:19;;;;;;;3.87;2.13;;;;;;;;;;10527496;28;20211;-68
2021/06/06 23:50:23;;;;;;;3.60;2.10;;;;;;;;;;10529957;28;20215;-68
2021/06/06 23:55:26;;;;;;;4.93;2.50;;;;;;;;;;10534047;28;20524;-67
